createdAt,value
2023-08-14T00:01:42.609Z,13.85
2023-08-14T00:04:12.780Z,11.40
2023-08-14T00:06:43.364Z,17.55
2023-08-14T00:09:13.394Z,9.07
2023-08-14T00:11:43.857Z,8.18
2023-08-14T00:14:14.298Z,11.07
2023-08-14T00:16:44.848Z,10.38
2023-08-14T00:19:15.136Z,11.25
2023-08-14T00:21:45.552Z,7.53
2023-08-14T00:24:15.631Z,8.30
2023-08-14T00:26:47.145Z,8.25
2023-08-14T00:29:17.783Z,8.15
2023-08-14T00:31:48.520Z,12.95
2023-08-14T00:34:18.628Z,9.50
2023-08-14T00:36:49.271Z,10.27
2023-08-14T00:39:19.380Z,10.50
2023-08-14T00:41:49.993Z,11.07
2023-08-14T00:44:20.101Z,6.90
2023-08-14T00:46:51.261Z,11.00
2023-08-14T00:49:21.373Z,11.35
2023-08-14T00:51:51.962Z,10.25
2023-08-14T00:54:22.212Z,11.75
2023-08-14T00:56:53.039Z,8.48
2023-08-14T00:59:23.312Z,10.80
2023-08-14T01:01:53.903Z,12.02
2023-08-14T01:04:24.517Z,7.50
2023-08-14T01:06:55.220Z,10.68
2023-08-14T01:09:25.457Z,13.48
2023-08-14T01:11:59.393Z,9.30
2023-08-14T01:14:34.040Z,15.48
2023-08-14T01:17:11.969Z,15.40
2023-08-14T01:19:44.237Z,16.25
2023-08-14T01:22:56.792Z,19.20
2023-08-14T01:25:35.732Z,18.83
2023-08-14T01:28:07.514Z,14.45
2023-08-14T01:30:38.580Z,10.55
2023-08-14T01:33:09.627Z,11.55
2023-08-14T01:35:48.510Z,7.03
2023-08-14T01:39:03.308Z,7.35
2023-08-14T01:41:43.934Z,7.68
2023-08-14T01:44:17.997Z,10.80
2023-08-14T01:46:50.277Z,9.80
2023-08-14T01:49:22.512Z,10.43
2023-08-14T01:51:55.074Z,13.48
2023-08-14T01:54:25.966Z,16.67
2023-08-14T01:56:59.058Z,15.60
2023-08-14T01:59:44.383Z,15.40
2023-08-14T02:02:16.598Z,11.57
2023-08-14T02:04:47.424Z,15.65
2023-08-14T02:07:17.500Z,10.80
2023-08-14T02:09:48.043Z,9.93
2023-08-14T02:12:18.278Z,8.05
2023-08-14T02:14:49.257Z,7.32
2023-08-14T02:17:21.229Z,11.13
2023-08-14T02:19:51.921Z,16.65
2023-08-14T02:22:22.709Z,10.40
2023-08-14T02:24:53.289Z,12.38
2023-08-14T02:27:23.363Z,8.90
2023-08-14T02:29:53.810Z,9.50
2023-08-14T02:32:24.047Z,10.38
2023-08-14T02:34:58.438Z,8.35
2023-08-14T02:37:28.445Z,12.13
2023-08-14T02:39:58.926Z,7.47
2023-08-14T02:42:29.401Z,10.82
2023-08-14T02:45:00.419Z,15.05
2023-08-14T02:47:30.465Z,11.27
2023-08-14T02:50:01.023Z,12.07
2023-08-14T02:52:31.024Z,7.95
2023-08-14T02:55:00.936Z,11.60
2023-08-14T02:57:31.444Z,9.35
2023-08-14T03:00:01.539Z,10.27
2023-08-14T03:02:32.048Z,10.75
2023-08-14T03:05:02.484Z,11.90
2023-08-14T03:07:32.958Z,9.50
2023-08-14T03:10:02.993Z,12.63
2023-08-14T03:12:33.463Z,15.68
2023-08-14T03:15:03.570Z,13.30
2023-08-14T03:17:34.410Z,13.23
2023-08-14T03:20:07.004Z,14.40
2023-08-14T03:22:37.559Z,13.82
2023-08-14T03:25:08.322Z,16.02
2023-08-14T03:27:40.058Z,18.63
2023-08-14T03:30:10.727Z,14.27
2023-08-14T03:32:42.835Z,15.27
2023-08-14T03:35:13.497Z,15.68
2023-08-14T03:37:44.035Z,16.25
2023-08-14T03:40:15.769Z,16.85
2023-08-14T03:42:46.443Z,13.95
2023-08-14T03:45:16.742Z,14.82
2023-08-14T03:47:47.335Z,13.48
2023-08-14T03:50:18.992Z,16.00
2023-08-14T03:52:51.108Z,13.55
2023-08-14T03:55:24.725Z,10.48
2023-08-14T03:57:56.971Z,11.55
2023-08-14T04:00:34.885Z,12.30
2023-08-14T04:03:09.682Z,15.85
2023-08-14T04:05:47.697Z,18.13
2023-08-14T04:08:42.423Z,12.95
2023-08-14T04:11:25.465Z,13.15
2023-08-14T04:14:47.337Z,15.57
2023-08-14T04:18:24.045Z,13.27
2023-08-14T04:22:54.426Z,16.75
2023-08-14T04:52:32.462Z,10.85
2023-08-14T04:55:17.019Z,11.93
2023-08-14T04:57:48.401Z,9.93
2023-08-14T05:00:19.280Z,10.93
2023-08-14T05:02:49.623Z,11.25
2023-08-14T05:05:22.040Z,9.13
2023-08-14T05:07:52.501Z,9.73
2023-08-14T05:10:24.180Z,12.18
2023-08-14T05:12:54.388Z,13.98
2023-08-14T05:15:24.917Z,20.05
2023-08-14T05:17:55.091Z,18.67
2023-08-14T05:20:25.644Z,17.10
2023-08-14T05:22:55.775Z,17.75
2023-08-14T05:25:27.097Z,16.98
2023-08-14T05:27:57.123Z,15.02
2023-08-14T05:30:27.604Z,14.32
2023-08-14T05:32:58.032Z,12.07
2023-08-14T05:35:28.755Z,11.32
2023-08-14T05:37:59.421Z,10.55
2023-08-14T05:40:30.300Z,10.57
2023-08-14T05:43:15.791Z,11.40
2023-08-14T05:45:48.137Z,10.80
2023-08-14T05:48:18.381Z,14.38
2023-08-14T05:50:48.737Z,12.60
2023-08-14T05:53:19.139Z,10.98
2023-08-14T05:55:49.572Z,11.73
2023-08-14T05:58:19.682Z,11.07
2023-08-14T06:00:51.781Z,11.52
2023-08-14T06:03:33.274Z,10.02
2023-08-14T06:06:12.712Z,10.18
2023-08-14T06:08:42.832Z,11.48
2023-08-14T06:11:13.285Z,14.55
2023-08-14T06:13:43.447Z,13.15
2023-08-14T06:16:14.616Z,13.43
2023-08-14T06:18:44.863Z,11.45
2023-08-14T06:21:15.306Z,10.63
2023-08-14T06:23:45.937Z,10.48
2023-08-14T06:26:16.595Z,11.10
2023-08-14T06:28:47.471Z,12.45
2023-08-14T06:31:18.018Z,12.63
2023-08-14T06:33:51.652Z,10.20
2023-08-14T06:36:23.086Z,9.90
2023-08-14T06:38:53.892Z,9.25
2023-08-14T06:41:24.576Z,10.15
2023-08-14T06:43:54.702Z,10.32
2023-08-14T06:46:24.725Z,12.15
2023-08-14T06:48:55.194Z,9.18
2023-08-14T06:51:25.238Z,11.32
2023-08-14T06:53:56.168Z,10.25
2023-08-14T06:56:26.495Z,12.07
2023-08-14T06:58:57.006Z,9.05
2023-08-14T07:01:27.388Z,8.93
2023-08-14T07:03:57.930Z,12.15
2023-08-14T07:06:28.116Z,14.63
2023-08-14T07:08:58.678Z,12.88
2023-08-14T07:11:28.930Z,10.10
2023-08-14T07:14:01.499Z,9.75
2023-08-14T07:16:31.752Z,13.02
2023-08-14T07:19:02.462Z,12.75
2023-08-14T07:21:32.506Z,11.13
2023-08-14T07:24:03.057Z,11.80
2023-08-14T07:26:33.344Z,13.52
2023-08-14T07:29:03.941Z,12.65
2023-08-14T07:31:33.999Z,15.15
2023-08-14T07:34:04.470Z,10.57
2023-08-14T07:36:36.737Z,19.48
2023-08-14T07:39:08.618Z,28.65
2023-08-14T07:41:38.929Z,12.55
2023-08-14T07:44:08.989Z,14.10
2023-08-14T07:46:39.386Z,11.35
2023-08-14T07:49:09.435Z,12.57
2023-08-14T07:51:39.938Z,12.68
2023-08-14T07:54:10.109Z,13.25
2023-08-14T07:56:40.828Z,12.63
2023-08-14T07:59:11.632Z,14.52
2023-08-14T08:01:43.688Z,13.27
2023-08-14T08:04:26.697Z,13.48
2023-08-14T08:06:57.820Z,11.60
2023-08-14T08:09:28.448Z,12.90
2023-08-14T08:12:00.844Z,12.05
2023-08-14T08:14:30.951Z,13.05
2023-08-14T08:17:00.799Z,10.98
2023-08-14T08:19:31.389Z,13.63
2023-08-14T08:22:01.459Z,17.88
2023-08-14T08:24:31.966Z,12.70
2023-08-14T08:27:02.196Z,9.63
2023-08-14T08:29:32.676Z,8.65
2023-08-14T08:32:02.773Z,9.00
2023-08-14T08:34:33.353Z,9.52
2023-08-14T08:37:03.346Z,9.05
2023-08-14T08:39:33.796Z,11.50
2023-08-14T08:42:05.564Z,8.23
2023-08-14T08:44:39.084Z,9.10
2023-08-14T08:47:14.040Z,12.48
2023-08-14T08:49:45.718Z,13.55
2023-08-14T08:52:17.710Z,13.50
2023-08-14T08:54:49.734Z,13.70
2023-08-14T08:57:21.084Z,13.98
2023-08-14T08:59:53.175Z,10.50
2023-08-14T09:02:23.525Z,11.45
2023-08-14T09:04:54.341Z,12.05
2023-08-14T09:07:24.562Z,9.07
2023-08-14T09:09:55.123Z,11.32
2023-08-14T09:12:24.964Z,12.18
2023-08-14T09:15:13.543Z,11.05
2023-08-14T09:17:43.592Z,10.18
2023-08-14T09:20:28.290Z,13.10
2023-08-14T09:23:01.361Z,10.23
2023-08-14T09:25:33.349Z,9.65
2023-08-14T09:28:04.278Z,35.00
2023-08-14T09:30:36.990Z,36.83
2023-08-14T09:33:11.664Z,18.02
2023-08-14T09:35:42.799Z,13.43
2023-08-14T09:38:17.586Z,14.10
2023-08-14T09:40:48.097Z,15.77
2023-08-14T09:43:18.213Z,14.55
2023-08-14T09:45:49.792Z,14.23
2023-08-14T09:48:20.440Z,14.27
2023-08-14T09:50:54.748Z,17.75
2023-08-14T09:53:25.168Z,14.75
2023-08-14T09:55:55.947Z,17.92
2023-08-14T09:58:26.542Z,15.57
2023-08-14T10:00:56.711Z,19.67
2023-08-14T10:03:28.644Z,15.90
2023-08-14T10:05:59.747Z,13.57
2023-08-14T10:08:32.235Z,17.48
2023-08-14T10:11:18.979Z,18.52
2023-08-14T10:13:56.724Z,9.48
2023-08-14T10:16:33.740Z,10.68
2023-08-14T10:19:06.917Z,12.77
2023-08-14T10:21:37.945Z,13.02
2023-08-14T10:24:09.862Z,13.55
2023-08-14T10:26:40.245Z,17.95
2023-08-14T10:29:11.087Z,14.60
2023-08-14T10:31:41.662Z,11.52
2023-08-14T10:34:12.730Z,13.60
2023-08-14T10:36:42.782Z,17.38
2023-08-14T10:41:48.197Z,13.02
2023-08-14T10:44:18.819Z,14.60
2023-08-14T10:46:49.633Z,11.38
2023-08-14T10:49:20.711Z,11.20
2023-08-14T10:51:50.797Z,12.43
2023-08-14T10:54:25.708Z,9.90
2023-08-14T10:57:02.049Z,11.18
2023-08-14T10:59:34.160Z,11.55
2023-08-14T11:02:18.128Z,10.90
2023-08-14T11:05:03.214Z,9.63
2023-08-14T11:07:36.633Z,12.70
2023-08-14T11:10:08.222Z,11.23
2023-08-14T11:12:38.916Z,13.45
2023-08-14T11:15:10.226Z,11.88
2023-08-14T11:17:40.701Z,13.57
2023-08-14T11:20:15.214Z,12.23
2023-08-14T11:22:49.969Z,10.75
2023-08-14T11:25:20.671Z,13.55
2023-08-14T11:27:53.383Z,15.27
2023-08-14T11:30:26.847Z,14.30
2023-08-14T11:32:57.381Z,14.95
2023-08-14T11:35:31.771Z,14.05
2023-08-14T11:38:02.237Z,11.82
2023-08-14T11:40:34.731Z,14.85
2023-08-14T11:43:05.046Z,12.90
2023-08-14T11:45:35.562Z,12.35
2023-08-14T11:48:10.142Z,11.88
2023-08-14T11:50:40.948Z,9.98
2023-08-14T11:53:14.300Z,10.55
2023-08-14T11:55:50.627Z,10.20
2023-08-14T12:02:59.195Z,8.98
2023-08-14T12:13:24.691Z,8.00
2023-08-14T12:28:49.476Z,9.98
2023-08-14T12:31:20.698Z,9.48
2023-08-14T12:33:56.436Z,11.15
2023-08-14T12:36:30.338Z,13.48
2023-08-14T12:39:00.611Z,11.48
2023-08-14T12:41:31.673Z,13.50
2023-08-14T12:44:01.840Z,11.52
2023-08-14T12:46:32.592Z,14.77
2023-08-14T12:49:02.732Z,11.82
2023-08-14T12:51:32.851Z,11.95
2023-08-14T12:54:03.398Z,12.50
2023-08-14T12:56:34.108Z,13.68
2023-08-14T12:59:04.740Z,11.02
2023-08-14T13:01:35.110Z,13.30
2023-08-14T13:04:07.739Z,14.10
2023-08-14T13:09:09.323Z,13.80
2023-08-14T13:11:39.349Z,13.80
2023-08-14T13:14:09.873Z,14.45
2023-08-14T13:16:39.786Z,11.57
2023-08-14T13:19:10.284Z,14.52
2023-08-14T13:21:40.371Z,13.10
2023-08-14T13:24:11.041Z,11.45
2023-08-14T13:26:41.075Z,10.98
2023-08-14T13:29:11.709Z,11.10
2023-08-14T13:31:42.011Z,13.75
2023-08-14T13:34:13.186Z,11.63
2023-08-14T13:36:43.432Z,12.38
2023-08-14T13:39:14.101Z,11.10
2023-08-14T13:41:44.348Z,11.98
2023-08-14T13:44:14.852Z,8.82
2023-08-14T13:46:44.722Z,13.18
2023-08-14T13:49:15.139Z,12.38
2023-08-14T13:51:46.739Z,13.75
2023-08-14T13:54:17.274Z,14.75
2023-08-14T13:56:47.280Z,14.05
2023-08-14T13:59:17.790Z,11.55
2023-08-14T14:01:48.186Z,12.27
2023-08-14T14:04:18.925Z,12.18
2023-08-14T14:06:49.021Z,18.40
2023-08-14T14:09:19.031Z,10.23
2023-08-14T14:11:49.584Z,12.32
2023-08-14T14:14:19.648Z,12.02
2023-08-14T14:17:03.109Z,12.05
2023-08-14T14:19:33.781Z,12.15
2023-08-14T14:22:05.404Z,11.40
2023-08-14T14:24:37.281Z,13.00
2023-08-14T14:27:07.876Z,11.98
2023-08-14T14:29:37.953Z,11.27
2023-08-14T14:32:08.692Z,11.02
2023-08-14T14:34:38.809Z,13.23
2023-08-14T14:37:09.234Z,13.57
2023-08-14T14:39:39.288Z,12.77
2023-08-14T14:42:09.878Z,14.02
2023-08-14T14:44:40.025Z,11.00
2023-08-14T14:47:10.433Z,10.02
2023-08-14T14:49:40.664Z,10.82
2023-08-14T14:52:11.133Z,12.25
2023-08-14T14:54:44.577Z,14.55
2023-08-14T14:57:15.164Z,12.90
2023-08-14T14:59:45.265Z,11.52
2023-08-14T15:02:28.982Z,11.35
2023-08-14T15:05:05.833Z,13.65
2023-08-14T15:07:37.716Z,14.32
2023-08-14T15:10:08.525Z,11.48
2023-08-14T15:12:39.750Z,12.68
2023-08-14T15:15:10.481Z,12.38
2023-08-14T15:17:44.421Z,14.77
2023-08-14T15:20:15.415Z,14.68
2023-08-14T15:22:45.939Z,9.45
2023-08-14T15:25:16.508Z,14.07
2023-08-14T15:27:47.153Z,12.95
2023-08-14T15:30:21.662Z,16.70
2023-08-14T15:32:53.006Z,16.40
2023-08-14T15:35:23.385Z,14.65
2023-08-14T15:37:54.179Z,11.48
2023-08-14T15:40:24.306Z,12.27
2023-08-14T15:42:55.643Z,10.25
2023-08-14T15:45:26.026Z,9.50
2023-08-14T15:47:56.571Z,10.35
2023-08-14T15:50:27.213Z,10.40
2023-08-14T15:52:57.719Z,11.75
2023-08-14T15:55:28.045Z,8.68
2023-08-14T15:57:58.842Z,10.43
2023-08-14T16:00:32.559Z,10.30
2023-08-14T16:03:04.174Z,8.18
2023-08-14T16:05:35.425Z,8.38
2023-08-14T16:08:06.092Z,7.90
2023-08-14T16:10:36.555Z,8.95
2023-08-14T16:13:07.021Z,10.80
2023-08-14T16:15:37.081Z,6.53
2023-08-14T16:18:07.634Z,9.13
2023-08-14T16:20:37.985Z,8.10
2023-08-14T16:23:08.402Z,8.85
2023-08-14T16:25:38.586Z,8.43
2023-08-14T16:28:09.202Z,7.45
2023-08-14T16:30:39.836Z,6.60
2023-08-14T16:33:10.619Z,9.05
2023-08-14T16:35:40.963Z,6.88
2023-08-14T16:38:11.548Z,5.40
2023-08-14T16:40:46.411Z,6.80
2023-08-14T16:43:17.014Z,7.35
2023-08-14T16:45:52.008Z,6.30
2023-08-14T16:48:22.485Z,7.50
2023-08-14T16:50:53.152Z,8.38
2023-08-14T16:53:23.862Z,8.57
2023-08-14T16:55:56.730Z,8.07
2023-08-14T16:58:27.101Z,5.85
2023-08-14T17:00:57.135Z,6.60
2023-08-14T17:03:28.084Z,7.40
2023-08-14T17:06:02.662Z,5.75
2023-08-14T17:08:36.007Z,12.07
2023-08-14T17:11:08.395Z,6.45
2023-08-14T17:13:39.003Z,8.75
2023-08-14T17:16:12.557Z,7.28
2023-08-14T17:18:43.061Z,7.38
2023-08-14T17:21:13.103Z,8.68
2023-08-14T17:23:43.529Z,7.05
2023-08-14T17:26:13.554Z,9.38
2023-08-14T17:28:44.300Z,8.27
2023-08-14T17:31:14.430Z,7.97
2023-08-14T17:33:45.021Z,8.60
2023-08-14T17:36:15.288Z,8.02
2023-08-14T17:38:45.771Z,9.30
2023-08-14T17:41:16.089Z,6.03
2023-08-14T17:43:46.654Z,9.75
2023-08-14T17:46:16.940Z,8.73
2023-08-14T17:48:47.553Z,7.85
2023-08-14T17:51:17.944Z,8.18
2023-08-14T17:53:48.457Z,7.57
2023-08-14T17:56:19.742Z,7.72
2023-08-14T17:58:51.795Z,8.13
2023-08-14T18:01:22.153Z,7.55
2023-08-14T18:03:52.715Z,6.97
2023-08-14T18:06:22.828Z,9.95
2023-08-14T18:08:53.293Z,7.90
2023-08-14T18:11:23.475Z,8.55
2023-08-14T18:13:54.698Z,10.02
2023-08-14T18:16:24.900Z,9.05
2023-08-14T18:19:04.399Z,7.45
2023-08-14T18:21:42.952Z,8.35
2023-08-14T18:24:13.530Z,5.70
2023-08-14T18:26:43.855Z,5.88
2023-08-14T18:29:14.500Z,7.45
2023-08-14T18:31:44.595Z,7.82
2023-08-14T18:34:15.871Z,7.15
2023-08-14T18:36:45.907Z,7.55
2023-08-14T18:39:17.746Z,7.07
2023-08-14T18:41:47.862Z,7.20
2023-08-14T18:44:22.448Z,8.50
2023-08-14T18:46:52.501Z,7.85
2023-08-14T18:49:23.124Z,6.13
2023-08-14T18:51:53.124Z,6.32
2023-08-14T18:54:24.356Z,9.45
2023-08-14T18:56:54.419Z,8.07
2023-08-14T18:59:26.659Z,8.50
2023-08-14T19:01:56.809Z,5.68
2023-08-14T19:04:40.797Z,7.47
2023-08-14T19:07:12.592Z,8.35
2023-08-14T19:09:43.813Z,6.50
2023-08-14T19:12:14.460Z,5.90
2023-08-14T19:14:44.913Z,7.68
2023-08-14T19:17:14.981Z,7.10
2023-08-14T19:19:46.137Z,6.93
2023-08-14T19:22:19.224Z,5.85
2023-08-14T19:24:49.678Z,9.23
2023-08-14T19:27:20.130Z,7.35
2023-08-14T19:29:50.680Z,9.45
2023-08-14T19:32:20.718Z,4.68
2023-08-14T19:34:51.929Z,8.02
2023-08-14T19:37:22.077Z,11.38
2023-08-14T19:39:52.527Z,9.52
2023-08-14T19:42:22.672Z,9.15
2023-08-14T19:44:53.092Z,8.30
2023-08-14T19:47:23.311Z,10.45
2023-08-14T19:49:55.158Z,9.27
2023-08-14T19:52:25.489Z,9.15
2023-08-14T19:54:56.424Z,9.68
2023-08-14T19:57:26.618Z,7.43
2023-08-14T19:59:57.197Z,12.02
2023-08-14T20:02:29.700Z,10.77
2023-08-14T20:05:00.224Z,7.15
2023-08-14T20:07:30.411Z,10.20
2023-08-14T20:10:02.471Z,10.50
2023-08-14T20:12:32.478Z,11.70
2023-08-14T20:15:02.884Z,12.48
2023-08-14T20:17:33.124Z,10.48
2023-08-14T20:20:03.747Z,9.20
2023-08-14T20:22:33.883Z,10.63
2023-08-14T20:25:04.641Z,10.90
2023-08-14T20:27:34.836Z,11.50
2023-08-14T20:30:05.904Z,9.25
2023-08-14T20:32:36.331Z,9.32
2023-08-14T20:35:09.719Z,9.85
2023-08-14T20:37:42.724Z,9.40
2023-08-14T20:40:13.696Z,12.95
2023-08-14T20:42:44.228Z,12.57
2023-08-14T20:45:17.136Z,8.23
2023-08-14T20:47:47.927Z,10.15
2023-08-14T20:50:18.500Z,11.48
2023-08-14T20:52:48.655Z,17.52
2023-08-14T20:55:19.191Z,11.15
2023-08-14T20:57:49.676Z,10.63
2023-08-14T21:00:20.109Z,11.13
2023-08-14T21:02:50.210Z,9.45
2023-08-14T21:05:20.367Z,11.32
2023-08-14T21:07:50.849Z,9.45
2023-08-14T21:10:21.593Z,8.93
2023-08-14T21:12:51.999Z,9.55
2023-08-14T21:15:22.195Z,13.80
2023-08-14T21:17:52.664Z,13.65
2023-08-14T21:20:22.720Z,14.43
2023-08-14T21:22:53.348Z,15.13
2023-08-14T21:25:25.738Z,15.35
2023-08-14T21:27:56.146Z,9.15
2023-08-14T21:30:26.411Z,11.90
2023-08-14T21:32:57.023Z,12.82
2023-08-14T21:35:27.840Z,12.57
2023-08-14T21:37:58.987Z,14.43
2023-08-14T21:40:29.919Z,12.75
2023-08-14T21:43:00.356Z,9.73
2023-08-14T21:45:31.262Z,12.77
2023-08-14T21:48:02.094Z,9.40
2023-08-14T21:50:32.110Z,10.48
2023-08-14T21:53:02.602Z,11.98
2023-08-14T21:55:33.418Z,9.05
2023-08-14T21:58:04.040Z,11.65
2023-08-14T22:00:34.239Z,14.07
2023-08-14T22:03:04.854Z,10.45
2023-08-14T22:05:35.044Z,12.65
2023-08-14T22:08:06.615Z,13.40
2023-08-14T22:10:36.761Z,9.98
2023-08-14T22:13:07.192Z,10.93
2023-08-14T22:15:46.154Z,12.57
2023-08-14T22:18:17.714Z,11.38
2023-08-14T22:20:47.737Z,16.15
2023-08-14T22:23:18.145Z,20.33
2023-08-14T22:25:48.209Z,25.42
2023-08-14T22:28:18.661Z,12.63
2023-08-14T22:30:48.715Z,13.20
2023-08-14T22:33:19.135Z,14.50
2023-08-14T22:35:58.982Z,13.05
2023-08-14T22:38:31.970Z,12.93
2023-08-14T22:41:03.236Z,10.57
2023-08-14T22:43:33.992Z,10.93
2023-08-14T22:46:04.050Z,13.05
2023-08-14T22:48:34.590Z,11.82
2023-08-14T22:51:04.874Z,12.95
2023-08-14T22:53:35.315Z,10.43
2023-08-14T22:56:05.362Z,12.65
2023-08-14T22:58:35.798Z,11.35
2023-08-14T23:01:05.900Z,13.52
2023-08-14T23:03:36.458Z,12.45
2023-08-14T23:06:06.459Z,12.25
2023-08-14T23:08:36.392Z,13.00
2023-08-14T23:11:06.936Z,10.63
2023-08-14T23:13:37.054Z,9.52
2023-08-14T23:16:07.726Z,12.73
2023-08-14T23:18:37.928Z,13.73
2023-08-14T23:21:08.342Z,11.02
2023-08-14T23:23:38.552Z,14.85
2023-08-14T23:26:10.354Z,10.05
2023-08-14T23:28:40.589Z,13.88
2023-08-14T23:31:11.253Z,12.35
2023-08-14T23:33:42.320Z,9.95
2023-08-14T23:36:13.678Z,10.25
2023-08-14T23:38:46.030Z,11.88
2023-08-14T23:41:16.868Z,11.43
2023-08-14T23:43:46.934Z,12.23
2023-08-14T23:46:17.611Z,11.48
2023-08-14T23:48:47.731Z,12.77
2023-08-14T23:51:19.052Z,12.13
2023-08-14T23:53:49.397Z,11.65
2023-08-14T23:56:19.969Z,12.70
2023-08-14T23:58:49.998Z,13.65
